sensor_id;sensor_type;location;lat;lon;timestamp;temperature;humidity
49777;DHT22;35673;51.482;7.436;2023-02-11T00:01:06;6.40;99.90
49777;DHT22;35673;51.482;7.436;2023-02-11T00:03:32;6.40;99.90
49777;DHT22;35673;51.482;7.436;2023-02-11T00:06:02;6.40;99.90
49777;DHT22;35673;51.482;7.436;2023-02-11T00:08:28;6.40;99.90
49777;DHT22;35673;51.482;7.436;2023-02-11T00:10:54;6.40;99.90
49777;DHT22;35673;51.482;7.436;2023-02-11T00:13:20;6.30;99.90
49777;DHT22;35673;51.482;7.436;2023-02-11T00:15:46;6.30;99.90
49777;DHT22;35673;51.482;7.436;2023-02-11T00:18:11;6.30;99.90
49777;DHT22;35673;51.482;7.436;2023-02-11T00:20:37;6.20;99.90
49777;DHT22;35673;51.482;7.436;2023-02-11T00:23:03;6.20;99.90
49777;DHT22;35673;51.482;7.436;2023-02-11T00:25:29;6.20;99.90
49777;DHT22;35673;51.482;7.436;2023-02-11T00:27:54;6.20;99.90
49777;DHT22;35673;51.482;7.436;2023-02-11T00:30:20;6.20;99.90
49777;DHT22;35673;51.482;7.436;2023-02-11T00:32:45;6.20;99.90
49777;DHT22;35673;51.482;7.436;2023-02-11T00:35:11;6.20;99.90
49777;DHT22;35673;51.482;7.436;2023-02-11T00:37:37;6.10;99.90
49777;DHT22;35673;51.482;7.436;2023-02-11T00:40:03;6.20;99.90
49777;DHT22;35673;51.482;7.436;2023-02-11T00:42:28;6.20;99.90
49777;DHT22;35673;51.482;7.436;2023-02-11T00:44:54;6.20;99.90
49777;DHT22;35673;51.482;7.436;2023-02-11T00:47:19;6.20;99.90
49777;DHT22;35673;51.482;7.436;2023-02-11T00:49:45;6.20;99.90
49777;DHT22;35673;51.482;7.436;2023-02-11T00:52:10;6.30;99.90
49777;DHT22;35673;51.482;7.436;2023-02-11T00:54:36;6.30;99.90
49777;DHT22;35673;51.482;7.436;2023-02-11T00:57:01;6.30;99.90
49777;DHT22;35673;51.482;7.436;2023-02-11T00:59:27;6.30;99.90
49777;DHT22;35673;51.482;7.436;2023-02-11T01:01:53;6.30;99.90
49777;DHT22;35673;51.482;7.436;2023-02-11T01:04:18;6.30;99.90
49777;DHT22;35673;51.482;7.436;2023-02-11T01:06:44;6.30;99.90
49777;DHT22;35673;51.482;7.436;2023-02-11T01:09:09;6.40;99.90
49777;DHT22;35673;51.482;7.436;2023-02-11T01:11:35;6.30;99.90
49777;DHT22;35673;51.482;7.436;2023-02-11T01:14:00;6.40;99.90
49777;DHT22;35673;51.482;7.436;2023-02-11T01:16:26;6.40;99.90
49777;DHT22;35673;51.482;7.436;2023-02-11T01:18:52;6.40;99.90
49777;DHT22;35673;51.482;7.436;2023-02-11T01:21:17;6.40;99.90
49777;DHT22;35673;51.482;7.436;2023-02-11T01:23:43;6.40;99.90
49777;DHT22;35673;51.482;7.436;2023-02-11T01:26:09;6.40;99.90
49777;DHT22;35673;51.482;7.436;2023-02-11T01:28:35;6.40;99.90
49777;DHT22;35673;51.482;7.436;2023-02-11T01:31:01;6.40;99.90
49777;DHT22;35673;51.482;7.436;2023-02-11T01:33:26;6.40;99.90
49777;DHT22;35673;51.482;7.436;2023-02-11T01:35:52;6.50;99.90
49777;DHT22;35673;51.482;7.436;2023-02-11T01:38:24;6.40;99.90
49777;DHT22;35673;51.482;7.436;2023-02-11T01:40:58;6.40;99.90
49777;DHT22;35673;51.482;7.436;2023-02-11T01:43:24;6.50;99.90
49777;DHT22;35673;51.482;7.436;2023-02-11T01:45:58;6.50;99.90
49777;DHT22;35673;51.482;7.436;2023-02-11T01:48:26;6.50;99.90
49777;DHT22;35673;51.482;7.436;2023-02-11T01:50:54;6.50;99.90
49777;DHT22;35673;51.482;7.436;2023-02-11T01:53:21;6.50;99.90
49777;DHT22;35673;51.482;7.436;2023-02-11T01:56:05;6.50;99.90
49777;DHT22;35673;51.482;7.436;2023-02-11T01:58:50;6.50;99.90
49777;DHT22;35673;51.482;7.436;2023-02-11T02:01:16;6.50;99.90
49777;DHT22;35673;51.482;7.436;2023-02-11T02:03:44;6.50;99.90
49777;DHT22;35673;51.482;7.436;2023-02-11T02:06:32;6.40;99.90
49777;DHT22;35673;51.482;7.436;2023-02-11T02:09:05;6.50;99.90
49777;DHT22;35673;51.482;7.436;2023-02-11T02:11:33;6.50;99.90
49777;DHT22;35673;51.482;7.436;2023-02-11T02:13:58;6.40;99.90
49777;DHT22;35673;51.482;7.436;2023-02-11T02:16:26;6.40;99.90
49777;DHT22;35673;51.482;7.436;2023-02-11T02:24:14;6.40;99.90
49777;DHT22;35673;51.482;7.436;2023-02-11T02:26:58;6.40;99.90
49777;DHT22;35673;51.482;7.436;2023-02-11T02:34:43;6.40;99.90
49777;DHT22;35673;51.482;7.436;2023-02-11T02:37:16;6.40;99.90
49777;DHT22;35673;51.482;7.436;2023-02-11T02:39:43;6.40;99.90
49777;DHT22;35673;51.482;7.436;2023-02-11T02:42:10;6.40;99.90
49777;DHT22;35673;51.482;7.436;2023-02-11T02:44:36;6.40;99.90
49777;DHT22;35673;51.482;7.436;2023-02-11T02:47:01;6.40;99.90
49777;DHT22;35673;51.482;7.436;2023-02-11T02:49:27;6.40;99.90
49777;DHT22;35673;51.482;7.436;2023-02-11T02:57:31;6.40;99.90
49777;DHT22;35673;51.482;7.436;2023-02-11T03:00:06;6.40;99.90
49777;DHT22;35673;51.482;7.436;2023-02-11T03:05:48;6.40;99.90
49777;DHT22;35673;51.482;7.436;2023-02-11T03:08:23;6.40;99.90
49777;DHT22;35673;51.482;7.436;2023-02-11T03:10:49;6.30;99.90
49777;DHT22;35673;51.482;7.436;2023-02-11T03:13:16;6.30;99.90
49777;DHT22;35673;51.482;7.436;2023-02-11T03:15:43;6.30;99.90
49777;DHT22;35673;51.482;7.436;2023-02-11T03:18:10;6.30;99.90
49777;DHT22;35673;51.482;7.436;2023-02-11T03:20:38;6.30;99.90
49777;DHT22;35673;51.482;7.436;2023-02-11T03:25:39;6.30;99.90
49777;DHT22;35673;51.482;7.436;2023-02-11T03:28:08;6.30;99.90
49777;DHT22;35673;51.482;7.436;2023-02-11T03:30:48;6.30;99.90
49777;DHT22;35673;51.482;7.436;2023-02-11T03:33:23;6.30;99.90
49777;DHT22;35673;51.482;7.436;2023-02-11T03:35:50;6.30;99.90
49777;DHT22;35673;51.482;7.436;2023-02-11T03:38:19;6.30;99.90
49777;DHT22;35673;51.482;7.436;2023-02-11T03:40:46;6.30;99.90
49777;DHT22;35673;51.482;7.436;2023-02-11T03:43:13;6.30;99.90
49777;DHT22;35673;51.482;7.436;2023-02-11T03:45:44;6.20;99.90
49777;DHT22;35673;51.482;7.436;2023-02-11T03:48:11;6.20;99.90
49777;DHT22;35673;51.482;7.436;2023-02-11T03:50:38;6.30;99.90
49777;DHT22;35673;51.482;7.436;2023-02-11T03:53:05;6.30;99.90
49777;DHT22;35673;51.482;7.436;2023-02-11T03:55:32;6.30;99.90
49777;DHT22;35673;51.482;7.436;2023-02-11T03:57:59;6.30;99.90
49777;DHT22;35673;51.482;7.436;2023-02-11T04:00:35;6.20;99.90
49777;DHT22;35673;51.482;7.436;2023-02-11T04:03:01;6.20;99.90
49777;DHT22;35673;51.482;7.436;2023-02-11T04:05:27;6.20;99.90
49777;DHT22;35673;51.482;7.436;2023-02-11T04:07:52;6.20;99.90
49777;DHT22;35673;51.482;7.436;2023-02-11T04:10:18;6.10;99.90
49777;DHT22;35673;51.482;7.436;2023-02-11T04:12:43;6.10;99.90
49777;DHT22;35673;51.482;7.436;2023-02-11T04:15:09;6.10;99.90
49777;DHT22;35673;51.482;7.436;2023-02-11T04:17:34;6.10;99.90
49777;DHT22;35673;51.482;7.436;2023-02-11T04:20:00;6.00;99.90
49777;DHT22;35673;51.482;7.436;2023-02-11T04:22:25;6.00;99.90
49777;DHT22;35673;51.482;7.436;2023-02-11T04:24:51;6.00;99.90
49777;DHT22;35673;51.482;7.436;2023-02-11T04:27:16;5.90;99.90
49777;DHT22;35673;51.482;7.436;2023-02-11T04:29:42;5.80;99.90
49777;DHT22;35673;51.482;7.436;2023-02-11T04:32:08;5.80;99.90
49777;DHT22;35673;51.482;7.436;2023-02-11T04:34:34;5.70;99.90
49777;DHT22;35673;51.482;7.436;2023-02-11T04:36:59;5.70;99.90
49777;DHT22;35673;51.482;7.436;2023-02-11T04:39:25;5.70;99.90
49777;DHT22;35673;51.482;7.436;2023-02-11T04:41:50;5.70;99.90
49777;DHT22;35673;51.482;7.436;2023-02-11T04:44:16;5.70;99.90
49777;DHT22;35673;51.482;7.436;2023-02-11T04:46:41;5.70;99.90
49777;DHT22;35673;51.482;7.436;2023-02-11T04:49:07;5.70;99.90
49777;DHT22;35673;51.482;7.436;2023-02-11T04:51:32;5.70;99.90
49777;DHT22;35673;51.482;7.436;2023-02-11T04:53:58;5.70;99.90
49777;DHT22;35673;51.482;7.436;2023-02-11T04:56:23;5.60;99.90
49777;DHT22;35673;51.482;7.436;2023-02-11T04:58:49;5.60;99.90
49777;DHT22;35673;51.482;7.436;2023-02-11T05:01:14;5.60;99.90
49777;DHT22;35673;51.482;7.436;2023-02-11T05:03:41;5.60;99.90
49777;DHT22;35673;51.482;7.436;2023-02-11T05:06:06;5.60;99.90
49777;DHT22;35673;51.482;7.436;2023-02-11T05:08:33;5.60;99.90
49777;DHT22;35673;51.482;7.436;2023-02-11T05:10:59;5.60;99.90
49777;DHT22;35673;51.482;7.436;2023-02-11T05:13:26;5.60;99.90
49777;DHT22;35673;51.482;7.436;2023-02-11T05:15:52;5.60;99.90
49777;DHT22;35673;51.482;7.436;2023-02-11T05:18:18;5.50;99.90
49777;DHT22;35673;51.482;7.436;2023-02-11T05:20:43;5.50;99.90
49777;DHT22;35673;51.482;7.436;2023-02-11T05:23:09;5.50;99.90
49777;DHT22;35673;51.482;7.436;2023-02-11T05:25:35;5.50;99.90
49777;DHT22;35673;51.482;7.436;2023-02-11T05:28:01;5.50;99.90
49777;DHT22;35673;51.482;7.436;2023-02-11T05:30:26;5.50;99.90
49777;DHT22;35673;51.482;7.436;2023-02-11T05:32:52;5.60;99.90
49777;DHT22;35673;51.482;7.436;2023-02-11T05:35:17;5.50;99.90
49777;DHT22;35673;51.482;7.436;2023-02-11T05:37:43;5.60;99.90
49777;DHT22;35673;51.482;7.436;2023-02-11T05:40:08;5.60;99.90
49777;DHT22;35673;51.482;7.436;2023-02-11T05:42:34;5.50;99.90
49777;DHT22;35673;51.482;7.436;2023-02-11T05:45:00;5.50;99.90
49777;DHT22;35673;51.482;7.436;2023-02-11T05:47:25;5.50;99.90
49777;DHT22;35673;51.482;7.436;2023-02-11T05:49:51;5.60;99.90
49777;DHT22;35673;51.482;7.436;2023-02-11T05:52:18;5.60;99.90
49777;DHT22;35673;51.482;7.436;2023-02-11T05:54:43;5.60;99.90
49777;DHT22;35673;51.482;7.436;2023-02-11T05:57:09;5.60;99.90
49777;DHT22;35673;51.482;7.436;2023-02-11T05:59:34;5.60;99.90
49777;DHT22;35673;51.482;7.436;2023-02-11T06:02:00;5.60;99.90
49777;DHT22;35673;51.482;7.436;2023-02-11T06:04:26;5.60;99.90
49777;DHT22;35673;51.482;7.436;2023-02-11T06:06:51;5.60;99.90
49777;DHT22;35673;51.482;7.436;2023-02-11T06:09:17;5.60;99.90
49777;DHT22;35673;51.482;7.436;2023-02-11T06:11:42;5.60;99.90
49777;DHT22;35673;51.482;7.436;2023-02-11T06:14:08;5.60;99.90
49777;DHT22;35673;51.482;7.436;2023-02-11T06:16:35;5.60;99.90
49777;DHT22;35673;51.482;7.436;2023-02-11T06:19:01;5.60;99.90
49777;DHT22;35673;51.482;7.436;2023-02-11T06:21:26;5.70;99.90
49777;DHT22;35673;51.482;7.436;2023-02-11T06:23:52;5.70;99.90
49777;DHT22;35673;51.482;7.436;2023-02-11T06:26:18;5.70;99.90
49777;DHT22;35673;51.482;7.436;2023-02-11T06:28:45;5.70;99.90
49777;DHT22;35673;51.482;7.436;2023-02-11T06:31:10;5.70;99.90
49777;DHT22;35673;51.482;7.436;2023-02-11T06:33:36;5.70;99.90
49777;DHT22;35673;51.482;7.436;2023-02-11T06:36:02;5.70;99.90
49777;DHT22;35673;51.482;7.436;2023-02-11T06:38:28;5.70;99.90
49777;DHT22;35673;51.482;7.436;2023-02-11T06:40:53;5.70;99.90
49777;DHT22;35673;51.482;7.436;2023-02-11T06:43:19;5.70;99.90
49777;DHT22;35673;51.482;7.436;2023-02-11T06:45:45;5.70;99.90
49777;DHT22;35673;51.482;7.436;2023-02-11T06:48:16;5.70;99.90
49777;DHT22;35673;51.482;7.436;2023-02-11T06:50:41;5.70;99.90
49777;DHT22;35673;51.482;7.436;2023-02-11T06:53:07;5.70;99.90
49777;DHT22;35673;51.482;7.436;2023-02-11T06:55:33;5.80;99.90
49777;DHT22;35673;51.482;7.436;2023-02-11T06:57:59;5.80;99.90
49777;DHT22;35673;51.482;7.436;2023-02-11T07:00:24;5.80;99.90
49777;DHT22;35673;51.482;7.436;2023-02-11T07:02:50;5.80;99.90
49777;DHT22;35673;51.482;7.436;2023-02-11T07:05:16;5.80;99.90
49777;DHT22;35673;51.482;7.436;2023-02-11T07:07:41;5.80;99.90
49777;DHT22;35673;51.482;7.436;2023-02-11T07:10:07;5.80;99.90
49777;DHT22;35673;51.482;7.436;2023-02-11T07:12:33;5.80;99.90
49777;DHT22;35673;51.482;7.436;2023-02-11T07:14:58;5.80;99.90
49777;DHT22;35673;51.482;7.436;2023-02-11T07:17:24;5.80;99.90
49777;DHT22;35673;51.482;7.436;2023-02-11T07:19:49;5.80;99.90
49777;DHT22;35673;51.482;7.436;2023-02-11T07:22:15;5.80;99.90
49777;DHT22;35673;51.482;7.436;2023-02-11T07:24:40;5.80;99.90
49777;DHT22;35673;51.482;7.436;2023-02-11T07:27:06;5.80;99.90
49777;DHT22;35673;51.482;7.436;2023-02-11T07:29:31;5.80;99.90
49777;DHT22;35673;51.482;7.436;2023-02-11T07:31:57;5.80;99.90
49777;DHT22;35673;51.482;7.436;2023-02-11T07:34:23;5.80;99.90
49777;DHT22;35673;51.482;7.436;2023-02-11T07:36:48;5.80;99.90
49777;DHT22;35673;51.482;7.436;2023-02-11T07:39:14;5.80;99.90
49777;DHT22;35673;51.482;7.436;2023-02-11T07:41:40;5.80;99.90
49777;DHT22;35673;51.482;7.436;2023-02-11T07:44:05;5.80;99.90
49777;DHT22;35673;51.482;7.436;2023-02-11T07:46:31;5.90;99.90
49777;DHT22;35673;51.482;7.436;2023-02-11T07:48:58;5.80;99.90
49777;DHT22;35673;51.482;7.436;2023-02-11T07:51:28;5.90;99.90
49777;DHT22;35673;51.482;7.436;2023-02-11T07:53:54;5.90;99.90
49777;DHT22;35673;51.482;7.436;2023-02-11T07:56:20;5.80;99.90
49777;DHT22;35673;51.482;7.436;2023-02-11T07:58:46;5.90;99.90
49777;DHT22;35673;51.482;7.436;2023-02-11T08:01:13;5.90;99.90
49777;DHT22;35673;51.482;7.436;2023-02-11T08:03:39;5.90;99.90
49777;DHT22;35673;51.482;7.436;2023-02-11T08:06:08;5.90;99.90
49777;DHT22;35673;51.482;7.436;2023-02-11T08:08:33;5.90;99.90
49777;DHT22;35673;51.482;7.436;2023-02-11T08:11:09;5.90;99.90
49777;DHT22;35673;51.482;7.436;2023-02-11T08:13:35;5.90;99.90
49777;DHT22;35673;51.482;7.436;2023-02-11T08:16:00;5.90;99.90
49777;DHT22;35673;51.482;7.436;2023-02-11T08:18:26;5.90;99.90
49777;DHT22;35673;51.482;7.436;2023-02-11T08:20:52;5.90;99.90
49777;DHT22;35673;51.482;7.436;2023-02-11T08:23:17;5.90;99.90
49777;DHT22;35673;51.482;7.436;2023-02-11T08:25:43;5.90;99.90
49777;DHT22;35673;51.482;7.436;2023-02-11T08:28:08;6.00;99.90
49777;DHT22;35673;51.482;7.436;2023-02-11T08:30:34;6.00;99.90
49777;DHT22;35673;51.482;7.436;2023-02-11T08:33:00;6.00;99.90
49777;DHT22;35673;51.482;7.436;2023-02-11T08:35:25;6.00;99.90
49777;DHT22;35673;51.482;7.436;2023-02-11T08:37:51;6.00;99.90
49777;DHT22;35673;51.482;7.436;2023-02-11T08:40:17;6.10;99.90
49777;DHT22;35673;51.482;7.436;2023-02-11T08:42:43;6.10;99.90
49777;DHT22;35673;51.482;7.436;2023-02-11T08:45:08;6.10;99.90
49777;DHT22;35673;51.482;7.436;2023-02-11T08:47:35;6.10;99.90
49777;DHT22;35673;51.482;7.436;2023-02-11T08:50:00;6.10;99.90
49777;DHT22;35673;51.482;7.436;2023-02-11T08:52:26;6.20;99.90
49777;DHT22;35673;51.482;7.436;2023-02-11T08:54:52;6.20;99.90
49777;DHT22;35673;51.482;7.436;2023-02-11T08:57:17;6.20;99.90
49777;DHT22;35673;51.482;7.436;2023-02-11T08:59:43;6.20;99.90
49777;DHT22;35673;51.482;7.436;2023-02-11T09:02:12;6.20;99.90
49777;DHT22;35673;51.482;7.436;2023-02-11T09:04:38;6.20;99.90
49777;DHT22;35673;51.482;7.436;2023-02-11T09:07:03;6.20;99.90
49777;DHT22;35673;51.482;7.436;2023-02-11T09:09:29;6.30;99.90
49777;DHT22;35673;51.482;7.436;2023-02-11T09:11:55;6.30;99.90
49777;DHT22;35673;51.482;7.436;2023-02-11T09:14:23;6.30;99.90
49777;DHT22;35673;51.482;7.436;2023-02-11T09:16:49;6.30;99.90
49777;DHT22;35673;51.482;7.436;2023-02-11T09:19:15;6.30;99.90
49777;DHT22;35673;51.482;7.436;2023-02-11T09:21:41;6.30;99.90
49777;DHT22;35673;51.482;7.436;2023-02-11T09:24:06;6.40;99.90
49777;DHT22;35673;51.482;7.436;2023-02-11T09:26:33;6.50;99.90
49777;DHT22;35673;51.482;7.436;2023-02-11T09:28:59;6.50;99.90
49777;DHT22;35673;51.482;7.436;2023-02-11T09:31:25;6.50;99.90
49777;DHT22;35673;51.482;7.436;2023-02-11T09:33:55;6.60;99.90
49777;DHT22;35673;51.482;7.436;2023-02-11T09:36:22;6.60;99.90
49777;DHT22;35673;51.482;7.436;2023-02-11T09:38:48;6.70;99.90
49777;DHT22;35673;51.482;7.436;2023-02-11T09:43:59;6.70;99.90
49777;DHT22;35673;51.482;7.436;2023-02-11T09:46:30;6.70;99.90
49777;DHT22;35673;51.482;7.436;2023-02-11T09:48:56;6.70;99.90
49777;DHT22;35673;51.482;7.436;2023-02-11T09:53:51;6.80;99.90
49777;DHT22;35673;51.482;7.436;2023-02-11T09:56:20;6.80;99.90
49777;DHT22;35673;51.482;7.436;2023-02-11T09:58:47;6.80;99.90
49777;DHT22;35673;51.482;7.436;2023-02-11T10:01:35;6.80;99.90
49777;DHT22;35673;51.482;7.436;2023-02-11T10:06:38;6.90;99.90
49777;DHT22;35673;51.482;7.436;2023-02-11T10:09:16;7.00;99.90
49777;DHT22;35673;51.482;7.436;2023-02-11T10:16:56;7.00;99.90
49777;DHT22;35673;51.482;7.436;2023-02-11T10:19:45;7.00;99.90
49777;DHT22;35673;51.482;7.436;2023-02-11T10:22:26;7.00;99.90
49777;DHT22;35673;51.482;7.436;2023-02-11T10:24:56;7.00;99.90
49777;DHT22;35673;51.482;7.436;2023-02-11T10:27:31;7.00;99.90
49777;DHT22;35673;51.482;7.436;2023-02-11T10:30:05;7.10;99.90
49777;DHT22;35673;51.482;7.436;2023-02-11T10:32:40;7.10;99.90
49777;DHT22;35673;51.482;7.436;2023-02-11T10:35:11;7.10;99.90
49777;DHT22;35673;51.482;7.436;2023-02-11T10:37:39;7.10;99.90
49777;DHT22;35673;51.482;7.436;2023-02-11T10:40:05;7.10;99.90
49777;DHT22;35673;51.482;7.436;2023-02-11T10:42:31;7.10;99.90
49777;DHT22;35673;51.482;7.436;2023-02-11T10:45:00;7.10;99.90
49777;DHT22;35673;51.482;7.436;2023-02-11T10:47:27;7.10;99.90
49777;DHT22;35673;51.482;7.436;2023-02-11T10:49:54;7.10;99.90
49777;DHT22;35673;51.482;7.436;2023-02-11T10:52:21;7.20;99.90
49777;DHT22;35673;51.482;7.436;2023-02-11T10:54:54;7.10;99.90
49777;DHT22;35673;51.482;7.436;2023-02-11T10:57:20;7.20;99.90
49777;DHT22;35673;51.482;7.436;2023-02-11T10:59:45;7.20;99.90
49777;DHT22;35673;51.482;7.436;2023-02-11T11:05:16;7.30;99.90
49777;DHT22;35673;51.482;7.436;2023-02-11T11:07:50;7.40;99.90
49777;DHT22;35673;51.482;7.436;2023-02-11T11:10:30;7.30;99.90
49777;DHT22;35673;51.482;7.436;2023-02-11T11:12:58;7.30;99.90
49777;DHT22;35673;51.482;7.436;2023-02-11T11:15:25;7.40;99.90
49777;DHT22;35673;51.482;7.436;2023-02-11T11:18:36;7.40;99.90
49777;DHT22;35673;51.482;7.436;2023-02-11T11:20:37;7.40;99.90
49777;DHT22;35673;51.482;7.436;2023-02-11T11:25:42;7.50;99.90
49777;DHT22;35673;51.482;7.436;2023-02-11T11:28:16;7.50;99.90
49777;DHT22;35673;51.482;7.436;2023-02-11T11:30:43;7.50;99.90
49777;DHT22;35673;51.482;7.436;2023-02-11T11:33:24;7.50;99.90
49777;DHT22;35673;51.482;7.436;2023-02-11T11:38:21;7.50;99.90
49777;DHT22;35673;51.482;7.436;2023-02-11T11:40:46;7.50;99.90
49777;DHT22;35673;51.482;7.436;2023-02-11T11:43:32;7.50;99.90
49777;DHT22;35673;51.482;7.436;2023-02-11T11:45:58;7.50;99.90
49777;DHT22;35673;51.482;7.436;2023-02-11T11:48:25;7.60;99.90
49777;DHT22;35673;51.482;7.436;2023-02-11T11:50:53;7.60;99.90
49777;DHT22;35673;51.482;7.436;2023-02-11T11:58:23;7.60;99.90
49777;DHT22;35673;51.482;7.436;2023-02-11T12:05:51;7.60;99.90
49777;DHT22;35673;51.482;7.436;2023-02-11T12:08:24;7.60;99.90
49777;DHT22;35673;51.482;7.436;2023-02-11T12:18:47;7.60;99.90
49777;DHT22;35673;51.482;7.436;2023-02-11T12:26:25;7.60;99.90
49777;DHT22;35673;51.482;7.436;2023-02-11T12:31:26;7.60;99.90
49777;DHT22;35673;51.482;7.436;2023-02-11T12:39:06;7.80;99.90
49777;DHT22;35673;51.482;7.436;2023-02-11T12:41:39;7.80;99.90
49777;DHT22;35673;51.482;7.436;2023-02-11T12:44:33;7.90;99.90
49777;DHT22;35673;51.482;7.436;2023-02-11T12:47:13;7.90;99.90
49777;DHT22;35673;51.482;7.436;2023-02-11T12:52:28;7.90;99.90
49777;DHT22;35673;51.482;7.436;2023-02-11T12:54:57;7.90;99.90
49777;DHT22;35673;51.482;7.436;2023-02-11T12:57:25;7.90;99.90
49777;DHT22;35673;51.482;7.436;2023-02-11T13:04:47;8.00;99.90
49777;DHT22;35673;51.482;7.436;2023-02-11T13:07:21;7.90;99.90
49777;DHT22;35673;51.482;7.436;2023-02-11T13:09:50;7.90;99.90
49777;DHT22;35673;51.482;7.436;2023-02-11T13:12:18;8.00;99.90
49777;DHT22;35673;51.482;7.436;2023-02-11T13:15:05;8.00;99.90
49777;DHT22;35673;51.482;7.436;2023-02-11T13:17:49;8.00;99.90
49777;DHT22;35673;51.482;7.436;2023-02-11T13:23:06;8.00;99.90
49777;DHT22;35673;51.482;7.436;2023-02-11T13:25:40;8.00;99.90
49777;DHT22;35673;51.482;7.436;2023-02-11T13:30:38;8.00;99.90
49777;DHT22;35673;51.482;7.436;2023-02-11T13:33:29;8.10;99.90
49777;DHT22;35673;51.482;7.436;2023-02-11T13:38:22;8.10;99.90
49777;DHT22;35673;51.482;7.436;2023-02-11T13:43:33;8.20;99.90
49777;DHT22;35673;51.482;7.436;2023-02-11T13:46:20;8.20;99.90
49777;DHT22;35673;51.482;7.436;2023-02-11T13:48:46;8.20;99.90
49777;DHT22;35673;51.482;7.436;2023-02-11T13:51:14;8.20;99.90
49777;DHT22;35673;51.482;7.436;2023-02-11T13:53:50;8.20;99.90
49777;DHT22;35673;51.482;7.436;2023-02-11T13:58:49;8.30;99.90
49777;DHT22;35673;51.482;7.436;2023-02-11T14:15:39;8.30;99.90
49777;DHT22;35673;51.482;7.436;2023-02-11T14:18:34;8.30;99.90
49777;DHT22;35673;51.482;7.436;2023-02-11T14:20:53;8.30;99.90
49777;DHT22;35673;51.482;7.436;2023-02-11T14:23:26;8.40;99.90
49777;DHT22;35673;51.482;7.436;2023-02-11T14:26:00;8.40;99.90
49777;DHT22;35673;51.482;7.436;2023-02-11T14:28:29;8.40;99.90
49777;DHT22;35673;51.482;7.436;2023-02-11T14:36:01;8.50;99.90
49777;DHT22;35673;51.482;7.436;2023-02-11T14:38:51;8.60;99.90
49777;DHT22;35673;51.482;7.436;2023-02-11T14:41:24;8.70;99.90
49777;DHT22;35673;51.482;7.436;2023-02-11T14:43:54;8.70;99.90
49777;DHT22;35673;51.482;7.436;2023-02-11T14:46:22;8.80;99.90
49777;DHT22;35673;51.482;7.436;2023-02-11T14:48:49;8.90;99.90
49777;DHT22;35673;51.482;7.436;2023-02-11T14:51:23;8.80;99.90
49777;DHT22;35673;51.482;7.436;2023-02-11T14:53:51;8.80;99.90
49777;DHT22;35673;51.482;7.436;2023-02-11T14:58:47;8.70;99.90
49777;DHT22;35673;51.482;7.436;2023-02-11T15:03:48;8.70;99.90
49777;DHT22;35673;51.482;7.436;2023-02-11T15:06:18;8.70;99.90
49777;DHT22;35673;51.482;7.436;2023-02-11T15:08:46;8.70;99.90
49777;DHT22;35673;51.482;7.436;2023-02-11T15:11:12;8.70;99.90
49777;DHT22;35673;51.482;7.436;2023-02-11T15:13:40;8.70;99.90
49777;DHT22;35673;51.482;7.436;2023-02-11T15:16:11;8.60;99.90
49777;DHT22;35673;51.482;7.436;2023-02-11T15:18:40;8.60;99.90
49777;DHT22;35673;51.482;7.436;2023-02-11T15:21:06;8.60;99.90
49777;DHT22;35673;51.482;7.436;2023-02-11T15:23:32;8.60;99.90
49777;DHT22;35673;51.482;7.436;2023-02-11T15:25:58;8.60;99.90
49777;DHT22;35673;51.482;7.436;2023-02-11T15:28:30;8.60;99.90
49777;DHT22;35673;51.482;7.436;2023-02-11T15:31:03;8.60;99.90
49777;DHT22;35673;51.482;7.436;2023-02-11T15:33:29;8.60;99.90
49777;DHT22;35673;51.482;7.436;2023-02-11T15:35:57;8.50;99.90
49777;DHT22;35673;51.482;7.436;2023-02-11T15:38:23;8.50;99.90
49777;DHT22;35673;51.482;7.436;2023-02-11T15:40:53;8.50;99.90
49777;DHT22;35673;51.482;7.436;2023-02-11T15:43:19;8.50;99.90
49777;DHT22;35673;51.482;7.436;2023-02-11T15:50:54;8.60;99.90
49777;DHT22;35673;51.482;7.436;2023-02-11T15:53:26;8.60;99.90
49777;DHT22;35673;51.482;7.436;2023-02-11T15:55:56;8.50;99.90
49777;DHT22;35673;51.482;7.436;2023-02-11T15:58:25;8.50;99.90
49777;DHT22;35673;51.482;7.436;2023-02-11T16:00:51;8.50;99.90
49777;DHT22;35673;51.482;7.436;2023-02-11T16:03:24;8.50;99.90
49777;DHT22;35673;51.482;7.436;2023-02-11T16:05:52;8.50;99.90
49777;DHT22;35673;51.482;7.436;2023-02-11T16:08:25;8.50;99.90
49777;DHT22;35673;51.482;7.436;2023-02-11T16:11:00;8.50;99.90
49777;DHT22;35673;51.482;7.436;2023-02-11T16:13:30;8.50;99.90
49777;DHT22;35673;51.482;7.436;2023-02-11T16:16:02;8.50;99.90
49777;DHT22;35673;51.482;7.436;2023-02-11T16:18:42;8.50;99.90
49777;DHT22;35673;51.482;7.436;2023-02-11T16:21:13;8.50;99.90
49777;DHT22;35673;51.482;7.436;2023-02-11T16:23:42;8.50;99.90
49777;DHT22;35673;51.482;7.436;2023-02-11T16:28:48;8.40;99.90
49777;DHT22;35673;51.482;7.436;2023-02-11T16:31:14;8.40;99.90
49777;DHT22;35673;51.482;7.436;2023-02-11T16:33:40;8.40;99.90
49777;DHT22;35673;51.482;7.436;2023-02-11T16:36:10;8.40;99.90
49777;DHT22;35673;51.482;7.436;2023-02-11T16:38:36;8.40;99.90
49777;DHT22;35673;51.482;7.436;2023-02-11T16:41:01;8.40;99.90
49777;DHT22;35673;51.482;7.436;2023-02-11T16:43:27;8.40;99.90
49777;DHT22;35673;51.482;7.436;2023-02-11T16:45:52;8.40;99.90
49777;DHT22;35673;51.482;7.436;2023-02-11T16:48:18;8.40;99.90
49777;DHT22;35673;51.482;7.436;2023-02-11T16:50:46;8.40;99.90
49777;DHT22;35673;51.482;7.436;2023-02-11T16:53:13;8.40;99.90
49777;DHT22;35673;51.482;7.436;2023-02-11T16:55:41;8.30;99.90
49777;DHT22;35673;51.482;7.436;2023-02-11T16:58:07;8.30;99.90
49777;DHT22;35673;51.482;7.436;2023-02-11T17:00:32;8.30;99.90
49777;DHT22;35673;51.482;7.436;2023-02-11T17:02:58;8.30;99.90
49777;DHT22;35673;51.482;7.436;2023-02-11T17:05:24;8.30;99.90
49777;DHT22;35673;51.482;7.436;2023-02-11T17:07:51;8.40;99.90
49777;DHT22;35673;51.482;7.436;2023-02-11T17:10:19;8.40;99.90
49777;DHT22;35673;51.482;7.436;2023-02-11T17:12:45;8.40;99.90
49777;DHT22;35673;51.482;7.436;2023-02-11T17:15:12;8.40;99.90
49777;DHT22;35673;51.482;7.436;2023-02-11T17:17:38;8.30;99.90
49777;DHT22;35673;51.482;7.436;2023-02-11T17:20:04;8.30;99.90
49777;DHT22;35673;51.482;7.436;2023-02-11T17:22:31;8.40;99.90
49777;DHT22;35673;51.482;7.436;2023-02-11T17:24:57;8.40;99.90
49777;DHT22;35673;51.482;7.436;2023-02-11T17:27:23;8.30;99.90
49777;DHT22;35673;51.482;7.436;2023-02-11T17:29:49;8.30;99.90
49777;DHT22;35673;51.482;7.436;2023-02-11T17:32:15;8.30;99.90
49777;DHT22;35673;51.482;7.436;2023-02-11T17:34:41;8.30;99.90
49777;DHT22;35673;51.482;7.436;2023-02-11T17:37:07;8.30;99.90
49777;DHT22;35673;51.482;7.436;2023-02-11T17:39:36;8.40;99.90
49777;DHT22;35673;51.482;7.436;2023-02-11T17:42:02;8.40;99.90
49777;DHT22;35673;51.482;7.436;2023-02-11T17:44:28;8.30;99.90
49777;DHT22;35673;51.482;7.436;2023-02-11T17:46:54;8.30;99.90
49777;DHT22;35673;51.482;7.436;2023-02-11T17:49:21;8.40;99.90
49777;DHT22;35673;51.482;7.436;2023-02-11T17:51:47;8.40;99.90
49777;DHT22;35673;51.482;7.436;2023-02-11T17:54:13;8.40;99.90
49777;DHT22;35673;51.482;7.436;2023-02-11T17:56:40;8.40;99.90